Fontana, CA (92335)

3:46 PM PST on March 04, 2015 (GMT -0800)
The Villiages | Change Station
CLOSE
Current Station
Personal Weather Station
Location: Fontana, CA
Elevation: 1309 ft
Nearby Weather Stations

Elev 1309 ft 34.12 °N, 117.48 °W | Updated 37 seconds ago

Clear
Clear
72.7 °F
Feels Like 74 °F
N
8.3
Wind Variable Wind from East
Gusts 13.0 mph

Today
High -- | Low -- °F
--% Chance of Precip.
Yesterday
High -- | Low -- °F
Precip. -- in
6:14 AM 5:48 PM
Waxing Gibbous, 99% visible
Pressure 30.04 in
Visibility 10.0 miles
Clouds Few 6000 ft
Few 25000 ft
Heat Index 74 °F
Dew Point 21 °F
Humidity 14%
Rainfall 0.00 in
Snow Depth Not available.
UV 3 out of 12
Pollen 8.80 out of 12
Air Quality Not available.
Flu Activity Not available.
METAR KONT 042253Z 27004KT 10SM FEW060 FEW250 21/M02 A3006 RMK AO2 SLP173 T02111022

More Conditions Fewer Conditions

Pressure 30.04 in
Visibility 10.0 miles
Clouds Few 6000 ft
Few 25000 ft
Heat Index 74 °F
Dew Point 21 °F
Humidity 14%
Rainfall 0.00 in
Snow Depth Not available.
UV 3 out of 12
Pollen 8.80 out of 12
Air Quality Not available.
Flu Activity Not available.
METAR KONT 042253Z 27004KT 10SM FEW060 FEW250 21/M02 A3006 RMK AO2 SLP173 T02111022

More Conditions Fewer Conditions

10-Day Weather Forecast

Almanac

Astronomy

Mar. 04, 2015 Rise Set
Actual Time
Civil Twilight
Nautical Twilight
Astronomical Twilight
Moon
Length of Visible Light
Length of Day
Tomorrow will be .
, % of the Moon is Illuminated

Today's Extremes

State Highs State Lows

Community

WunderPhotos

Upload Photos

1,802,605 photos uploaded!

WunderBlogs® & News

Nearby

Air Quality

  Air Quality AQ Index Pollutant
Not available.

Snow Depth

Station Depth Elevation

Earthquake Activity

City Distance Mag. Time & Date
Minimum magnitude displayed is 2.5.

Coastal Water Temperatures

Place Temperature

Nearby Weather Stations